sensor_id;sensor_type;location;lat;lon;timestamp;pressure;altitude;pressure_sealevel;temperature;humidity
11329;BME280;5719;42.714;23.732;2022-07-10T00:00:28;94347.06;;;14.12;100.00
11329;BME280;5719;42.714;23.732;2022-07-10T00:02:55;94332.28;;;14.12;100.00
11329;BME280;5719;42.714;23.732;2022-07-10T00:05:23;94339.09;;;14.04;100.00
11329;BME280;5719;42.714;23.732;2022-07-10T00:07:51;94322.69;;;13.94;100.00
11329;BME280;5719;42.714;23.732;2022-07-10T00:10:19;94316.66;;;13.93;100.00
11329;BME280;5719;42.714;23.732;2022-07-10T00:12:48;94313.66;;;13.98;100.00
11329;BME280;5719;42.714;23.732;2022-07-10T00:15:15;94311.72;;;13.90;100.00
11329;BME280;5719;42.714;23.732;2022-07-10T00:17:43;94309.13;;;13.81;100.00
11329;BME280;5719;42.714;23.732;2022-07-10T00:20:11;94307.31;;;13.71;100.00
11329;BME280;5719;42.714;23.732;2022-07-10T00:22:39;94264.59;;;13.45;100.00
11329;BME280;5719;42.714;23.732;2022-07-10T00:25:09;94305.16;;;13.77;100.00
11329;BME280;5719;42.714;23.732;2022-07-10T00:27:36;94312.28;;;13.84;100.00
11329;BME280;5719;42.714;23.732;2022-07-10T00:30:05;94304.88;;;13.80;100.00
11329;BME280;5719;42.714;23.732;2022-07-10T00:32:33;94298.72;;;13.81;100.00
11329;BME280;5719;42.714;23.732;2022-07-10T00:34:59;94300.22;;;13.83;100.00
11329;BME280;5719;42.714;23.732;2022-07-10T00:37:27;94296.53;;;13.86;100.00
11329;BME280;5719;42.714;23.732;2022-07-10T00:39:54;94295.72;;;13.85;100.00
11329;BME280;5719;42.714;23.732;2022-07-10T00:42:21;94294.09;;;13.94;100.00
11329;BME280;5719;42.714;23.732;2022-07-10T00:44:48;94297.91;;;13.99;100.00
11329;BME280;5719;42.714;23.732;2022-07-10T00:47:16;94288.47;;;13.89;100.00
11329;BME280;5719;42.714;23.732;2022-07-10T00:49:45;94293.16;;;13.95;100.00
11329;BME280;5719;42.714;23.732;2022-07-10T00:52:14;94292.88;;;13.98;100.00
11329;BME280;5719;42.714;23.732;2022-07-10T00:54:43;94283.00;;;13.92;100.00
11329;BME280;5719;42.714;23.732;2022-07-10T00:57:12;94288.78;;;14.05;100.00
11329;BME280;5719;42.714;23.732;2022-07-10T00:59:39;94277.81;;;14.01;100.00
11329;BME280;5719;42.714;23.732;2022-07-10T01:02:07;94288.09;;;14.12;100.00
11329;BME280;5719;42.714;23.732;2022-07-10T01:04:35;94280.84;;;14.16;100.00
11329;BME280;5719;42.714;23.732;2022-07-10T01:07:03;94270.44;;;14.16;100.00
11329;BME280;5719;42.714;23.732;2022-07-10T01:09:31;94276.47;;;14.16;100.00
11329;BME280;5719;42.714;23.732;2022-07-10T01:11:59;94269.59;;;13.87;100.00
11329;BME280;5719;42.714;23.732;2022-07-10T01:14:27;94275.34;;;13.81;100.00
11329;BME280;5719;42.714;23.732;2022-07-10T01:16:54;94276.97;;;13.82;100.00
11329;BME280;5719;42.714;23.732;2022-07-10T01:19:21;94225.63;;;13.45;100.00
11329;BME280;5719;42.714;23.732;2022-07-10T01:21:49;94272.75;;;13.81;100.00
11329;BME280;5719;42.714;23.732;2022-07-10T01:24:16;94273.16;;;13.86;100.00
11329;BME280;5719;42.714;23.732;2022-07-10T01:26:43;94266.06;;;13.88;100.00
11329;BME280;5719;42.714;23.732;2022-07-10T01:29:10;94265.22;;;13.97;100.00
11329;BME280;5719;42.714;23.732;2022-07-10T01:31:38;94264.81;;;13.92;100.00
11329;BME280;5719;42.714;23.732;2022-07-10T01:34:07;94264.81;;;14.01;100.00
11329;BME280;5719;42.714;23.732;2022-07-10T01:36:35;94265.66;;;14.02;100.00
11329;BME280;5719;42.714;23.732;2022-07-10T01:39:04;94261.97;;;13.95;100.00
11329;BME280;5719;42.714;23.732;2022-07-10T01:41:32;94264.69;;;14.03;100.00
11329;BME280;5719;42.714;23.732;2022-07-10T01:43:59;94261.94;;;14.04;100.00
11329;BME280;5719;42.714;23.732;2022-07-10T01:46:26;94235.81;;;13.87;100.00
11329;BME280;5719;42.714;23.732;2022-07-10T01:48:53;94258.25;;;14.07;100.00
11329;BME280;5719;42.714;23.732;2022-07-10T01:51:20;94256.59;;;13.87;100.00
11329;BME280;5719;42.714;23.732;2022-07-10T01:53:47;94263.31;;;13.80;100.00
11329;BME280;5719;42.714;23.732;2022-07-10T01:56:16;94267.00;;;13.87;100.00
11329;BME280;5719;42.714;23.732;2022-07-10T01:58:43;94260.31;;;13.84;100.00
11329;BME280;5719;42.714;23.732;2022-07-10T02:01:10;94265.19;;;13.77;100.00
11329;BME280;5719;42.714;23.732;2022-07-10T02:03:38;94265.50;;;13.84;100.00
11329;BME280;5719;42.714;23.732;2022-07-10T02:06:22;94260.97;;;13.77;100.00
11329;BME280;5719;42.714;23.732;2022-07-10T02:08:49;94261.94;;;13.75;100.00
11329;BME280;5719;42.714;23.732;2022-07-10T02:11:18;94254.41;;;13.72;100.00
11329;BME280;5719;42.714;23.732;2022-07-10T02:13:45;94260.69;;;13.80;100.00
11329;BME280;5719;42.714;23.732;2022-07-10T02:16:11;94248.53;;;13.80;100.00
11329;BME280;5719;42.714;23.732;2022-07-10T02:18:38;94264.97;;;13.90;100.00
11329;BME280;5719;42.714;23.732;2022-07-10T02:21:05;94253.88;;;13.98;100.00
11329;BME280;5719;42.714;23.732;2022-07-10T02:23:33;94267.28;;;14.03;100.00
11329;BME280;5719;42.714;23.732;2022-07-10T02:26:00;94259.22;;;14.06;100.00
11329;BME280;5719;42.714;23.732;2022-07-10T02:28:29;94263.16;;;14.10;100.00
11329;BME280;5719;42.714;23.732;2022-07-10T02:30:56;94242.91;;;13.85;100.00
11329;BME280;5719;42.714;23.732;2022-07-10T02:33:23;94250.47;;;13.88;100.00
11329;BME280;5719;42.714;23.732;2022-07-10T02:35:49;94257.97;;;13.91;100.00
11329;BME280;5719;42.714;23.732;2022-07-10T02:38:16;94258.66;;;13.93;100.00
11329;BME280;5719;42.714;23.732;2022-07-10T02:40:43;94260.84;;;13.97;100.00
11329;BME280;5719;42.714;23.732;2022-07-10T02:43:10;94246.22;;;13.96;100.00
11329;BME280;5719;42.714;23.732;2022-07-10T02:45:38;94255.66;;;13.88;100.00
11329;BME280;5719;42.714;23.732;2022-07-10T02:48:05;94256.19;;;13.82;100.00
11329;BME280;5719;42.714;23.732;2022-07-10T02:50:32;94268.22;;;13.83;100.00
11329;BME280;5719;42.714;23.732;2022-07-10T02:52:59;94261.09;;;13.85;100.00
11329;BME280;5719;42.714;23.732;2022-07-10T02:55:26;94260.97;;;13.96;100.00
11329;BME280;5719;42.714;23.732;2022-07-10T02:57:53;94262.06;;;14.03;100.00
11329;BME280;5719;42.714;23.732;2022-07-10T03:00:20;94261.56;;;14.09;100.00
11329;BME280;5719;42.714;23.732;2022-07-10T03:02:48;94264.00;;;14.10;100.00
11329;BME280;5719;42.714;23.732;2022-07-10T03:05:15;94258.28;;;14.16;100.00
11329;BME280;5719;42.714;23.732;2022-07-10T03:07:42;94264.53;;;14.14;100.00
11329;BME280;5719;42.714;23.732;2022-07-10T03:10:09;94263.59;;;14.24;100.00
11329;BME280;5719;42.714;23.732;2022-07-10T03:12:36;94260.72;;;14.28;100.00
11329;BME280;5719;42.714;23.732;2022-07-10T03:15:04;94259.75;;;14.29;100.00
11329;BME280;5719;42.714;23.732;2022-07-10T03:17:31;94258.13;;;14.28;100.00
11329;BME280;5719;42.714;23.732;2022-07-10T03:19:59;94254.56;;;14.19;100.00
11329;BME280;5719;42.714;23.732;2022-07-10T03:22:26;94261.41;;;14.20;100.00
11329;BME280;5719;42.714;23.732;2022-07-10T03:24:53;94266.63;;;14.20;100.00
11329;BME280;5719;42.714;23.732;2022-07-10T03:27:20;94266.75;;;14.18;100.00
11329;BME280;5719;42.714;23.732;2022-07-10T03:29:47;94265.50;;;14.22;100.00
11329;BME280;5719;42.714;23.732;2022-07-10T03:32:14;94253.91;;;14.17;100.00
11329;BME280;5719;42.714;23.732;2022-07-10T03:34:41;94250.59;;;14.15;100.00
11329;BME280;5719;42.714;23.732;2022-07-10T03:37:09;94267.16;;;14.23;100.00
11329;BME280;5719;42.714;23.732;2022-07-10T03:39:36;94263.47;;;14.26;100.00
11329;BME280;5719;42.714;23.732;2022-07-10T03:42:04;94270.31;;;14.27;100.00
11329;BME280;5719;42.714;23.732;2022-07-10T03:44:31;94255.66;;;14.16;100.00
11329;BME280;5719;42.714;23.732;2022-07-10T03:46:58;94258.94;;;14.18;100.00
11329;BME280;5719;42.714;23.732;2022-07-10T03:49:25;94260.31;;;14.22;100.00
11329;BME280;5719;42.714;23.732;2022-07-10T03:51:52;94255.66;;;14.26;100.00
11329;BME280;5719;42.714;23.732;2022-07-10T03:54:20;94264.56;;;14.33;100.00
11329;BME280;5719;42.714;23.732;2022-07-10T03:56:48;94254.56;;;14.29;100.00
11329;BME280;5719;42.714;23.732;2022-07-10T03:59:32;94260.88;;;14.36;100.00
11329;BME280;5719;42.714;23.732;2022-07-10T04:01:59;94252.66;;;14.40;100.00
11329;BME280;5719;42.714;23.732;2022-07-10T04:04:26;94258.28;;;14.45;100.00
11329;BME280;5719;42.714;23.732;2022-07-10T04:06:53;94260.88;;;14.45;100.00
11329;BME280;5719;42.714;23.732;2022-07-10T04:09:21;94261.72;;;14.46;100.00
11329;BME280;5719;42.714;23.732;2022-07-10T04:11:48;94260.59;;;14.48;100.00
11329;BME280;5719;42.714;23.732;2022-07-10T04:14:15;94266.75;;;14.47;100.00
11329;BME280;5719;42.714;23.732;2022-07-10T04:16:42;94260.47;;;14.50;100.00
11329;BME280;5719;42.714;23.732;2022-07-10T04:19:11;94258.41;;;14.53;100.00
11329;BME280;5719;42.714;23.732;2022-07-10T04:21:38;94257.88;;;14.50;100.00
11329;BME280;5719;42.714;23.732;2022-07-10T04:24:05;94261.16;;;14.42;100.00
11329;BME280;5719;42.714;23.732;2022-07-10T04:26:33;94254.88;;;14.35;100.00
11329;BME280;5719;42.714;23.732;2022-07-10T04:29:00;94256.22;;;14.39;100.00
11329;BME280;5719;42.714;23.732;2022-07-10T04:31:27;94248.00;;;14.44;100.00
11329;BME280;5719;42.714;23.732;2022-07-10T04:33:54;94246.78;;;14.48;100.00
11329;BME280;5719;42.714;23.732;2022-07-10T04:36:24;94252.22;;;14.54;100.00
11329;BME280;5719;42.714;23.732;2022-07-10T04:38:51;94256.63;;;14.63;100.00
11329;BME280;5719;42.714;23.732;2022-07-10T04:41:18;94250.16;;;14.67;100.00
11329;BME280;5719;42.714;23.732;2022-07-10T04:43:46;94253.84;;;14.75;100.00
11329;BME280;5719;42.714;23.732;2022-07-10T04:46:13;94254.81;;;14.73;100.00
11329;BME280;5719;42.714;23.732;2022-07-10T04:48:40;94250.72;;;14.71;100.00
11329;BME280;5719;42.714;23.732;2022-07-10T04:51:07;94249.84;;;14.80;100.00
11329;BME280;5719;42.714;23.732;2022-07-10T04:53:34;94247.25;;;14.90;100.00
11329;BME280;5719;42.714;23.732;2022-07-10T04:56:01;94255.31;;;14.96;100.00
11329;BME280;5719;42.714;23.732;2022-07-10T04:58:28;94255.25;;;15.06;100.00
11329;BME280;5719;42.714;23.732;2022-07-10T05:00:56;94254.97;;;15.09;100.00
11329;BME280;5719;42.714;23.732;2022-07-10T05:03:23;94248.94;;;15.08;100.00
11329;BME280;5719;42.714;23.732;2022-07-10T05:05:50;94248.38;;;15.14;100.00
11329;BME280;5719;42.714;23.732;2022-07-10T05:08:17;94250.28;;;15.22;100.00
11329;BME280;5719;42.714;23.732;2022-07-10T05:10:44;94254.59;;;15.31;100.00
11329;BME280;5719;42.714;23.732;2022-07-10T05:13:11;94254.72;;;15.39;100.00
11329;BME280;5719;42.714;23.732;2022-07-10T05:15:38;94257.72;;;15.44;100.00
11329;BME280;5719;42.714;23.732;2022-07-10T05:18:07;94248.38;;;15.51;100.00
11329;BME280;5719;42.714;23.732;2022-07-10T05:20:34;94244.06;;;15.60;100.00
11329;BME280;5719;42.714;23.732;2022-07-10T05:23:03;94253.75;;;15.67;100.00
11329;BME280;5719;42.714;23.732;2022-07-10T05:25:30;94243.34;;;15.67;100.00
11329;BME280;5719;42.714;23.732;2022-07-10T05:27:58;94240.81;;;15.76;100.00
11329;BME280;5719;42.714;23.732;2022-07-10T05:30:25;94248.44;;;15.87;100.00
11329;BME280;5719;42.714;23.732;2022-07-10T05:32:51;94257.91;;;15.88;100.00
11329;BME280;5719;42.714;23.732;2022-07-10T05:35:20;94255.00;;;15.91;100.00
11329;BME280;5719;42.714;23.732;2022-07-10T05:37:47;94254.78;;;15.84;100.00
11329;BME280;5719;42.714;23.732;2022-07-10T05:40:14;94256.22;;;15.69;100.00
11329;BME280;5719;42.714;23.732;2022-07-10T05:42:41;94253.59;;;15.51;100.00
11329;BME280;5719;42.714;23.732;2022-07-10T05:45:08;94253.44;;;15.53;100.00
11329;BME280;5719;42.714;23.732;2022-07-10T05:47:35;94250.69;;;15.54;100.00
11329;BME280;5719;42.714;23.732;2022-07-10T05:50:02;94252.34;;;15.55;100.00
11329;BME280;5719;42.714;23.732;2022-07-10T05:52:31;94254.25;;;15.53;100.00
11329;BME280;5719;42.714;23.732;2022-07-10T05:54:58;94251.88;;;15.60;100.00
11329;BME280;5719;42.714;23.732;2022-07-10T05:57:25;94246.25;;;15.64;100.00
11329;BME280;5719;42.714;23.732;2022-07-10T05:59:52;94257.81;;;15.80;100.00
11329;BME280;5719;42.714;23.732;2022-07-10T06:02:19;94237.09;;;15.78;100.00
11329;BME280;5719;42.714;23.732;2022-07-10T06:04:46;94246.13;;;16.01;100.00
11329;BME280;5719;42.714;23.732;2022-07-10T06:07:13;94249.13;;;16.06;100.00
11329;BME280;5719;42.714;23.732;2022-07-10T06:09:41;94240.50;;;16.06;100.00
11329;BME280;5719;42.714;23.732;2022-07-10T06:12:08;94250.84;;;16.15;100.00
11329;BME280;5719;42.714;23.732;2022-07-10T06:14:35;94248.13;;;16.25;100.00
11329;BME280;5719;42.714;23.732;2022-07-10T06:17:03;94251.13;;;16.30;100.00
11329;BME280;5719;42.714;23.732;2022-07-10T06:19:30;94235.31;;;16.14;100.00
11329;BME280;5719;42.714;23.732;2022-07-10T06:21:57;94244.56;;;16.26;100.00
11329;BME280;5719;42.714;23.732;2022-07-10T06:24:42;94248.06;;;16.35;100.00
11329;BME280;5719;42.714;23.732;2022-07-10T06:27:09;94252.84;;;16.39;100.00
11329;BME280;5719;42.714;23.732;2022-07-10T06:29:37;94228.31;;;16.32;100.00
11329;BME280;5719;42.714;23.732;2022-07-10T06:32:05;94254.03;;;16.62;100.00
11329;BME280;5719;42.714;23.732;2022-07-10T06:34:32;94245.91;;;16.91;100.00
11329;BME280;5719;42.714;23.732;2022-07-10T06:36:59;94243.28;;;17.17;100.00
11329;BME280;5719;42.714;23.732;2022-07-10T06:39:28;94259.69;;;17.35;100.00
11329;BME280;5719;42.714;23.732;2022-07-10T06:42:00;94254.69;;;17.50;100.00
11329;BME280;5719;42.714;23.732;2022-07-10T06:44:27;94254.66;;;17.42;100.00
11329;BME280;5719;42.714;23.732;2022-07-10T06:46:54;94256.09;;;17.36;100.00
11329;BME280;5719;42.714;23.732;2022-07-10T06:49:35;94245.38;;;17.47;100.00
11329;BME280;5719;42.714;23.732;2022-07-10T06:52:03;94252.06;;;17.84;100.00
11329;BME280;5719;42.714;23.732;2022-07-10T06:54:30;94245.94;;;18.17;100.00
11329;BME280;5719;42.714;23.732;2022-07-10T06:56:57;94238.78;;;18.59;100.00
11329;BME280;5719;42.714;23.732;2022-07-10T06:59:25;94239.72;;;18.99;100.00
11329;BME280;5719;42.714;23.732;2022-07-10T07:01:52;94241.75;;;19.36;100.00
11329;BME280;5719;42.714;23.732;2022-07-10T07:04:19;94235.13;;;19.64;99.33
11329;BME280;5719;42.714;23.732;2022-07-10T07:06:46;94227.66;;;19.84;100.00
11329;BME280;5719;42.714;23.732;2022-07-10T07:09:13;94229.84;;;20.03;100.00
11329;BME280;5719;42.714;23.732;2022-07-10T07:11:40;94232.72;;;20.16;96.37
11329;BME280;5719;42.714;23.732;2022-07-10T07:14:07;94233.28;;;20.26;97.90
11329;BME280;5719;42.714;23.732;2022-07-10T07:16:36;94222.69;;;20.20;96.46
11329;BME280;5719;42.714;23.732;2022-07-10T07:19:08;94216.47;;;20.43;94.46
11329;BME280;5719;42.714;23.732;2022-07-10T07:21:35;94222.59;;;20.73;93.59
11329;BME280;5719;42.714;23.732;2022-07-10T07:24:20;94172.94;;;20.49;93.78
11329;BME280;5719;42.714;23.732;2022-07-10T07:26:47;94224.31;;;21.03;92.67
11329;BME280;5719;42.714;23.732;2022-07-10T07:29:14;94230.22;;;21.20;91.09
11329;BME280;5719;42.714;23.732;2022-07-10T07:31:43;94224.63;;;21.23;90.85
11329;BME280;5719;42.714;23.732;2022-07-10T07:34:11;94224.53;;;21.31;90.36
11329;BME280;5719;42.714;23.732;2022-07-10T07:36:38;94224.81;;;21.36;91.75
11329;BME280;5719;42.714;23.732;2022-07-10T07:39:05;94223.09;;;21.43;92.24
11329;BME280;5719;42.714;23.732;2022-07-10T07:41:32;94223.16;;;21.50;90.71
11329;BME280;5719;42.714;23.732;2022-07-10T07:43:59;94217.66;;;21.45;89.81
11329;BME280;5719;42.714;23.732;2022-07-10T07:46:26;94226.69;;;21.28;91.16
11329;BME280;5719;42.714;23.732;2022-07-10T07:48:57;94215.84;;;21.31;92.21
11329;BME280;5719;42.714;23.732;2022-07-10T07:51:23;94217.00;;;21.43;91.77
11329;BME280;5719;42.714;23.732;2022-07-10T07:53:50;94215.25;;;21.65;93.70
11329;BME280;5719;42.714;23.732;2022-07-10T07:56:17;94209.97;;;21.94;91.31
11329;BME280;5719;42.714;23.732;2022-07-10T07:58:44;94209.94;;;22.30;87.55
11329;BME280;5719;42.714;23.732;2022-07-10T08:01:11;94212.00;;;22.56;86.46
11329;BME280;5719;42.714;23.732;2022-07-10T08:03:38;94206.56;;;22.78;83.33
11329;BME280;5719;42.714;23.732;2022-07-10T08:06:06;94215.63;;;22.97;81.25
11329;BME280;5719;42.714;23.732;2022-07-10T08:08:33;94209.03;;;22.80;80.73
11329;BME280;5719;42.714;23.732;2022-07-10T08:11:00;94201.81;;;22.67;82.26
11329;BME280;5719;42.714;23.732;2022-07-10T08:13:27;94205.56;;;22.58;82.66
11329;BME280;5719;42.714;23.732;2022-07-10T08:15:55;94197.41;;;22.53;85.95
11329;BME280;5719;42.714;23.732;2022-07-10T08:18:22;94206.13;;;22.54;85.17
11329;BME280;5719;42.714;23.732;2022-07-10T08:20:49;94197.47;;;22.81;86.81
11329;BME280;5719;42.714;23.732;2022-07-10T08:23:17;94201.16;;;22.86;82.67
11329;BME280;5719;42.714;23.732;2022-07-10T08:25:44;94200.22;;;22.94;83.12
11329;BME280;5719;42.714;23.732;2022-07-10T08:28:11;94201.47;;;22.98;82.38
11329;BME280;5719;42.714;23.732;2022-07-10T08:30:38;94194.16;;;23.00;85.17
11329;BME280;5719;42.714;23.732;2022-07-10T08:33:07;94197.44;;;23.02;82.98
11329;BME280;5719;42.714;23.732;2022-07-10T08:35:34;94198.09;;;23.11;78.97
11329;BME280;5719;42.714;23.732;2022-07-10T08:38:01;94197.69;;;23.14;75.84
11329;BME280;5719;42.714;23.732;2022-07-10T08:40:34;94198.00;;;23.32;72.72
11329;BME280;5719;42.714;23.732;2022-07-10T08:43:02;94202.44;;;23.53;73.85
11329;BME280;5719;42.714;23.732;2022-07-10T08:45:31;94194.81;;;23.71;74.15
11329;BME280;5719;42.714;23.732;2022-07-10T08:48:02;94189.84;;;24.09;77.95
11329;BME280;5719;42.714;23.732;2022-07-10T08:50:33;94200.28;;;24.23;72.85
11329;BME280;5719;42.714;23.732;2022-07-10T08:53:07;94201.50;;;24.34;70.10
11329;BME280;5719;42.714;23.732;2022-07-10T08:55:37;94192.16;;;24.38;65.05
11329;BME280;5719;42.714;23.732;2022-07-10T08:58:04;94192.19;;;24.45;60.48
11329;BME280;5719;42.714;23.732;2022-07-10T09:00:32;94193.63;;;24.67;61.57
11329;BME280;5719;42.714;23.732;2022-07-10T09:02:59;94194.09;;;24.83;65.22
11329;BME280;5719;42.714;23.732;2022-07-10T09:05:26;94195.50;;;24.86;63.76
11329;BME280;5719;42.714;23.732;2022-07-10T09:07:53;94193.88;;;24.98;61.91
11329;BME280;5719;42.714;23.732;2022-07-10T09:10:24;94188.59;;;24.98;62.70
11329;BME280;5719;42.714;23.732;2022-07-10T09:12:54;94187.97;;;24.89;62.97
11329;BME280;5719;42.714;23.732;2022-07-10T09:15:23;94188.78;;;24.90;62.15
11329;BME280;5719;42.714;23.732;2022-07-10T09:17:52;94182.44;;;24.65;61.86
11329;BME280;5719;42.714;23.732;2022-07-10T09:20:30;94185.03;;;24.19;66.14
11329;BME280;5719;42.714;23.732;2022-07-10T09:22:59;94180.16;;;24.22;60.29
11329;BME280;5719;42.714;23.732;2022-07-10T09:25:30;94194.38;;;24.21;60.97
11329;BME280;5719;42.714;23.732;2022-07-10T09:27:59;94194.41;;;24.28;60.93
11329;BME280;5719;42.714;23.732;2022-07-10T09:30:35;94191.56;;;24.36;62.65
11329;BME280;5719;42.714;23.732;2022-07-10T09:33:16;94190.38;;;24.52;64.12
11329;BME280;5719;42.714;23.732;2022-07-10T09:36:02;94178.16;;;24.51;64.88
11329;BME280;5719;42.714;23.732;2022-07-10T09:39:02;94189.38;;;25.05;63.58
11329;BME280;5719;42.714;23.732;2022-07-10T09:41:30;94185.44;;;25.41;56.84
11329;BME280;5719;42.714;23.732;2022-07-10T09:44:00;94194.78;;;25.63;55.53
11329;BME280;5719;42.714;23.732;2022-07-10T09:46:34;94191.03;;;25.83;51.36
11329;BME280;5719;42.714;23.732;2022-07-10T09:49:07;94185.88;;;26.02;53.79
11329;BME280;5719;42.714;23.732;2022-07-10T09:51:35;94181.66;;;26.32;54.65
11329;BME280;5719;42.714;23.732;2022-07-10T09:54:05;94166.78;;;26.62;51.44
11329;BME280;5719;42.714;23.732;2022-07-10T09:56:42;94170.59;;;26.98;48.60
11329;BME280;5719;42.714;23.732;2022-07-10T09:59:13;94135.44;;;27.02;47.49
11329;BME280;5719;42.714;23.732;2022-07-10T10:01:43;94176.75;;;27.16;45.19
11329;BME280;5719;42.714;23.732;2022-07-10T10:04:11;94175.72;;;27.17;46.63
11329;BME280;5719;42.714;23.732;2022-07-10T10:06:39;94174.06;;;26.98;49.12
11329;BME280;5719;42.714;23.732;2022-07-10T10:09:10;94177.22;;;26.82;48.36
11329;BME280;5719;42.714;23.732;2022-07-10T10:11:40;94170.50;;;26.55;47.72
11329;BME280;5719;42.714;23.732;2022-07-10T10:14:08;94176.34;;;26.32;49.68
11329;BME280;5719;42.714;23.732;2022-07-10T10:16:37;94171.78;;;26.08;51.18
11329;BME280;5719;42.714;23.732;2022-07-10T10:19:08;94163.34;;;25.86;51.69
11329;BME280;5719;42.714;23.732;2022-07-10T10:21:53;94178.25;;;25.74;54.60
11329;BME280;5719;42.714;23.732;2022-07-10T10:24:22;94177.03;;;25.70;51.87
11329;BME280;5719;42.714;23.732;2022-07-10T10:26:50;94173.19;;;25.66;51.40
11329;BME280;5719;42.714;23.732;2022-07-10T10:29:17;94166.69;;;25.55;52.45
11329;BME280;5719;42.714;23.732;2022-07-10T10:31:46;94167.06;;;25.65;52.64
11329;BME280;5719;42.714;23.732;2022-07-10T10:34:13;94159.31;;;25.70;54.30
11329;BME280;5719;42.714;23.732;2022-07-10T10:36:45;94160.56;;;25.61;54.36
11329;BME280;5719;42.714;23.732;2022-07-10T10:39:15;94162.22;;;25.56;53.95
11329;BME280;5719;42.714;23.732;2022-07-10T10:41:49;94156.69;;;25.51;52.24
11329;BME280;5719;42.714;23.732;2022-07-10T10:44:27;94152.88;;;25.40;53.37
11329;BME280;5719;42.714;23.732;2022-07-10T10:47:03;94163.25;;;25.42;55.28
11329;BME280;5719;42.714;23.732;2022-07-10T10:50:01;94159.44;;;25.31;52.64
11329;BME280;5719;42.714;23.732;2022-07-10T10:52:28;94161.47;;;25.35;53.59
11329;BME280;5719;42.714;23.732;2022-07-10T10:55:06;94155.13;;;25.36;52.95
11329;BME280;5719;42.714;23.732;2022-07-10T10:57:41;94155.94;;;25.37;49.51
11329;BME280;5719;42.714;23.732;2022-07-10T11:00:34;94145.78;;;25.27;50.91
11329;BME280;5719;42.714;23.732;2022-07-10T11:03:18;94155.75;;;25.38;51.41
11329;BME280;5719;42.714;23.732;2022-07-10T11:05:47;94149.41;;;25.39;51.89
11329;BME280;5719;42.714;23.732;2022-07-10T11:08:35;94159.25;;;25.19;52.17
11329;BME280;5719;42.714;23.732;2022-07-10T11:11:37;94165.75;;;24.77;53.12
11329;BME280;5719;42.714;23.732;2022-07-10T11:14:08;94161.91;;;24.47;61.57
11329;BME280;5719;42.714;23.732;2022-07-10T11:16:37;94155.31;;;24.10;64.88
11329;BME280;5719;42.714;23.732;2022-07-10T11:19:20;94147.50;;;23.76;70.39
11329;BME280;5719;42.714;23.732;2022-07-10T11:24:41;94158.50;;;23.38;76.09
11329;BME280;5719;42.714;23.732;2022-07-10T11:27:27;94159.19;;;23.19;77.33
11329;BME280;5719;42.714;23.732;2022-07-10T11:29:58;94156.53;;;23.13;80.74
11329;BME280;5719;42.714;23.732;2022-07-10T11:32:25;94158.09;;;23.07;84.28
11329;BME280;5719;42.714;23.732;2022-07-10T11:34:57;94149.03;;;23.16;85.82
11329;BME280;5719;42.714;23.732;2022-07-10T11:37:25;94152.94;;;23.27;84.88
11329;BME280;5719;42.714;23.732;2022-07-10T11:40:08;94150.81;;;23.43;86.40
11329;BME280;5719;42.714;23.732;2022-07-10T11:42:50;94158.19;;;23.55;85.06
11329;BME280;5719;42.714;23.732;2022-07-10T11:45:26;94153.97;;;23.67;84.03
11329;BME280;5719;42.714;23.732;2022-07-10T11:47:55;94155.63;;;23.81;86.86
11329;BME280;5719;42.714;23.732;2022-07-10T11:50:24;94154.88;;;24.00;85.87
11329;BME280;5719;42.714;23.732;2022-07-10T11:52:53;94162.06;;;24.19;82.17
11329;BME280;5719;42.714;23.732;2022-07-10T11:55:22;94158.03;;;24.43;73.35
11329;BME280;5719;42.714;23.732;2022-07-10T11:57:49;94143.81;;;24.64;71.74
11329;BME280;5719;42.714;23.732;2022-07-10T12:00:24;94160.47;;;25.04;70.54
11329;BME280;5719;42.714;23.732;2022-07-10T12:02:52;94154.94;;;25.38;62.70
11329;BME280;5719;42.714;23.732;2022-07-10T12:05:37;94161.56;;;25.67;59.77
11329;BME280;5719;42.714;23.732;2022-07-10T12:08:05;94148.69;;;25.77;57.36
11329;BME280;5719;42.714;23.732;2022-07-10T12:10:33;94158.97;;;25.41;59.90
11329;BME280;5719;42.714;23.732;2022-07-10T12:13:05;94160.97;;;25.58;60.33
11329;BME280;5719;42.714;23.732;2022-07-10T12:15:34;94124.06;;;25.06;61.51
11329;BME280;5719;42.714;23.732;2022-07-10T12:18:04;94148.88;;;25.24;59.22
11329;BME280;5719;42.714;23.732;2022-07-10T12:20:31;94150.47;;;25.25;56.60
11329;BME280;5719;42.714;23.732;2022-07-10T12:23:00;94154.47;;;25.48;59.12
11329;BME280;5719;42.714;23.732;2022-07-10T12:25:28;94139.38;;;25.68;55.87
11329;BME280;5719;42.714;23.732;2022-07-10T12:27:55;94143.75;;;25.94;53.67
11329;BME280;5719;42.714;23.732;2022-07-10T12:30:24;94133.25;;;26.12;53.38
11329;BME280;5719;42.714;23.732;2022-07-10T12:33:09;94122.91;;;26.60;53.65
11329;BME280;5719;42.714;23.732;2022-07-10T12:35:47;94140.31;;;26.80;50.76
11329;BME280;5719;42.714;23.732;2022-07-10T12:38:19;94140.66;;;26.91;49.28
11329;BME280;5719;42.714;23.732;2022-07-10T12:40:47;94135.91;;;26.99;46.99
11329;BME280;5719;42.714;23.732;2022-07-10T12:43:24;94135.34;;;26.91;46.99
11329;BME280;5719;42.714;23.732;2022-07-10T12:46:10;94138.31;;;27.01;48.61
11329;BME280;5719;42.714;23.732;2022-07-10T12:48:41;94129.91;;;26.54;45.10
11329;BME280;5719;42.714;23.732;2022-07-10T12:51:23;94104.44;;;25.84;49.13
11329;BME280;5719;42.714;23.732;2022-07-10T12:53:52;94142.78;;;25.81;54.17
11329;BME280;5719;42.714;23.732;2022-07-10T12:56:35;94150.81;;;25.55;54.86
11329;BME280;5719;42.714;23.732;2022-07-10T12:59:03;94144.72;;;25.42;56.24
11329;BME280;5719;42.714;23.732;2022-07-10T13:01:39;94145.38;;;25.17;59.55
11329;BME280;5719;42.714;23.732;2022-07-10T13:04:07;94149.50;;;25.00;60.70
11329;BME280;5719;42.714;23.732;2022-07-10T13:06:35;94157.88;;;24.84;64.65
11329;BME280;5719;42.714;23.732;2022-07-10T13:09:18;94149.09;;;24.51;66.31